createdAt,value
2018-12-30T00:00:49.137Z,41.73
2018-12-30T00:03:18.195Z,37.73
2018-12-30T00:05:47.271Z,36.13
2018-12-30T00:08:16.335Z,35.57
2018-12-30T00:10:45.396Z,37.33
2018-12-30T00:13:14.490Z,35.87
2018-12-30T00:15:43.548Z,35.73
2018-12-30T00:18:12.599Z,37.93
2018-12-30T00:20:41.773Z,42.37
2018-12-30T00:23:10.821Z,39.63
2018-12-30T00:25:39.887Z,43.40
2018-12-30T00:28:09.213Z,43.70
2018-12-30T00:30:38.257Z,47.93
2018-12-30T00:33:07.354Z,48.13
2018-12-30T00:35:36.440Z,48.92
2018-12-30T00:38:05.501Z,48.07
2018-12-30T00:40:34.564Z,42.50
2018-12-30T00:43:03.945Z,47.07
2018-12-30T00:45:32.992Z,50.10
2018-12-30T00:48:02.046Z,48.67
2018-12-30T00:50:31.153Z,50.67
2018-12-30T00:53:13.187Z,47.47
2018-12-30T00:55:42.383Z,57.23
2018-12-30T00:58:11.438Z,48.93
2018-12-30T01:00:40.495Z,54.77
2018-12-30T01:03:09.574Z,49.70
2018-12-30T01:05:38.620Z,52.20
2018-12-30T01:08:07.680Z,54.83
2018-12-30T01:10:36.767Z,48.87
2018-12-30T01:13:05.828Z,52.20
2018-12-30T01:15:34.876Z,51.00
2018-12-30T01:18:04.494Z,48.57
2018-12-30T01:20:33.548Z,47.80
2018-12-30T01:23:03.604Z,47.37
2018-12-30T01:25:32.693Z,46.17
2018-12-30T01:28:01.753Z,47.60
2018-12-30T01:30:30.818Z,46.63
2018-12-30T01:32:59.921Z,40.47
2018-12-30T01:35:28.960Z,46.57
2018-12-30T01:37:58.212Z,44.67
2018-12-30T01:40:27.413Z,40.30
2018-12-30T01:42:56.468Z,44.30
2018-12-30T01:45:25.530Z,42.43
2018-12-30T01:47:54.608Z,40.90
2018-12-30T01:50:23.657Z,38.83
2018-12-30T01:52:52.719Z,38.47
2018-12-30T01:55:21.801Z,39.67
2018-12-30T01:57:50.853Z,43.57
2018-12-30T02:00:19.913Z,44.60
2018-12-30T02:02:49.224Z,44.93
2018-12-30T02:05:18.277Z,46.87
2018-12-30T02:07:47.328Z,50.63
2018-12-30T02:10:16.417Z,49.23
2018-12-30T02:12:58.484Z,50.23
2018-12-30T02:15:27.569Z,51.70
2018-12-30T02:17:56.607Z,55.17
2018-12-30T02:20:25.661Z,58.20
2018-12-30T02:22:54.749Z,61.90
2018-12-30T02:25:23.803Z,58.20
2018-12-30T02:27:52.864Z,59.20
2018-12-30T02:30:21.946Z,51.07
2018-12-30T02:35:56.654Z,59.47
2018-12-30T02:38:25.720Z,59.83
2018-12-30T02:40:54.774Z,63.67
2018-12-30T02:43:42.103Z,67.77
2018-12-30T02:46:11.244Z,69.47
2018-12-30T02:48:40.301Z,62.27
2018-12-30T02:51:09.395Z,67.83
2018-12-30T02:53:38.451Z,64.73
2018-12-30T02:56:07.505Z,65.30
2018-12-30T02:58:36.581Z,75.50
2018-12-30T03:01:05.637Z,65.67
2018-12-30T03:06:40.808Z,55.73
2018-12-30T03:09:09.896Z,47.23
2018-12-30T03:11:38.948Z,48.37
2018-12-30T03:14:07.999Z,37.27
2018-12-30T03:16:37.167Z,34.43
2018-12-30T03:19:06.232Z,32.27
2018-12-30T03:21:35.278Z,33.50
2018-12-30T03:24:04.377Z,34.67
2018-12-30T03:26:33.437Z,28.47
2018-12-30T03:29:02.489Z,28.67
2018-12-30T03:31:31.566Z,29.67
2018-12-30T03:34:18.103Z,31.53
2018-12-30T03:36:47.179Z,28.27
2018-12-30T03:39:16.230Z,31.20
2018-12-30T03:41:45.290Z,27.83
2018-12-30T03:44:14.389Z,30.70
2018-12-30T03:46:43.525Z,29.83
2018-12-30T03:49:12.573Z,31.10
2018-12-30T03:51:41.656Z,32.33
2018-12-30T03:54:10.703Z,31.20
2018-12-30T03:56:39.745Z,30.07
2018-12-30T03:59:08.916Z,31.97
2018-12-30T04:01:37.994Z,33.97
2018-12-30T04:04:07.045Z,28.73
2018-12-30T04:06:36.143Z,29.47
2018-12-30T04:09:05.192Z,31.47
2018-12-30T04:11:34.251Z,32.13
2018-12-30T04:14:03.332Z,29.53
2018-12-30T04:16:32.391Z,32.13
2018-12-30T04:19:01.440Z,33.27
2018-12-30T04:21:30.523Z,32.10
2018-12-30T04:23:59.576Z,31.40
2018-12-30T04:26:28.635Z,33.13
2018-12-30T04:28:57.754Z,31.73
2018-12-30T04:31:26.805Z,33.00
2018-12-30T04:33:55.864Z,33.83
2018-12-30T04:36:24.959Z,32.03
2018-12-30T04:38:54.003Z,35.20
2018-12-30T04:41:23.081Z,34.60
2018-12-30T04:46:49.446Z,39.33
2018-12-30T04:49:18.539Z,38.73
2018-12-30T04:51:47.591Z,35.53
2018-12-30T04:54:24.012Z,34.93
2018-12-30T04:56:53.095Z,40.73
2018-12-30T04:59:22.139Z,34.30
2018-12-30T05:01:51.282Z,40.67
2018-12-30T05:04:20.349Z,34.73
2018-12-30T05:06:49.403Z,36.83
2018-12-30T05:09:18.487Z,37.53
2018-12-30T05:11:47.533Z,32.50
2018-12-30T05:14:16.591Z,30.70
2018-12-30T05:16:45.668Z,32.87
2018-12-30T05:19:14.726Z,29.90
2018-12-30T05:21:43.779Z,31.37
2018-12-30T05:24:12.894Z,31.57
2018-12-30T05:26:41.964Z,32.60
2018-12-30T05:29:11.015Z,33.87
2018-12-30T05:31:40.103Z,34.57
2018-12-30T05:34:09.162Z,34.50
2018-12-30T05:36:38.213Z,35.07
2018-12-30T05:39:07.297Z,27.90
2018-12-30T05:41:36.355Z,25.10
2018-12-30T05:44:05.427Z,27.17
2018-12-30T05:46:34.619Z,21.93
2018-12-30T05:49:03.677Z,21.27
2018-12-30T05:51:32.732Z,22.70
2018-12-30T05:54:01.811Z,25.37
2018-12-30T05:56:31.962Z,20.83
2018-12-30T05:58:59.922Z,17.50
2018-12-30T06:01:29.007Z,22.53
2018-12-30T06:03:58.061Z,18.10
2018-12-30T06:06:27.108Z,20.83
2018-12-30T06:08:56.217Z,19.40
2018-12-30T06:11:25.279Z,18.80
2018-12-30T06:13:54.325Z,19.13
2018-12-30T06:16:23.412Z,18.70
2018-12-30T06:18:52.466Z,24.60
2018-12-30T06:21:21.530Z,17.70
2018-12-30T06:23:50.717Z,17.53
2018-12-30T06:26:19.765Z,19.20
2018-12-30T06:28:48.945Z,20.03
2018-12-30T06:31:18.043Z,16.00
2018-12-30T06:33:47.108Z,18.80
2018-12-30T06:36:16.162Z,12.33
2018-12-30T06:38:45.234Z,12.80
2018-12-30T06:41:14.281Z,13.13
2018-12-30T06:43:43.320Z,11.40
2018-12-30T06:46:12.406Z,10.57
2018-12-30T06:48:41.451Z,11.37
2018-12-30T06:51:10.601Z,11.97
2018-12-30T06:53:39.699Z,12.63
2018-12-30T06:56:08.747Z,10.37
2018-12-30T06:58:37.788Z,10.80
2018-12-30T07:01:06.853Z,14.07
2018-12-30T07:03:35.915Z,10.07
2018-12-30T07:06:04.967Z,12.30
2018-12-30T07:08:34.132Z,23.90
2018-12-30T07:11:03.115Z,153.97
2018-12-30T07:13:32.236Z,106.00
2018-12-30T07:16:01.420Z,19.97
2018-12-30T07:18:30.487Z,17.10
2018-12-30T07:20:59.592Z,21.23
2018-12-30T07:23:28.683Z,13.97
2018-12-30T07:25:57.738Z,17.07
2018-12-30T07:28:26.804Z,13.30
2018-12-30T07:30:55.893Z,18.63
2018-12-30T07:33:29.156Z,12.17
2018-12-30T07:35:58.388Z,14.10
2018-12-30T07:38:27.443Z,15.43
2018-12-30T07:40:56.491Z,20.90
2018-12-30T07:43:25.576Z,20.27
2018-12-30T07:45:54.638Z,15.60
2018-12-30T07:48:23.740Z,21.97
2018-12-30T07:50:52.831Z,24.07
2018-12-30T07:53:21.920Z,31.03
2018-12-30T07:55:50.968Z,29.43
2018-12-30T07:58:20.072Z,26.23
2018-12-30T08:00:49.128Z,17.10
2018-12-30T08:06:12.798Z,34.33
2018-12-30T08:08:41.891Z,28.17
2018-12-30T08:11:10.941Z,30.60
2018-12-30T08:13:40.002Z,30.60
2018-12-30T08:16:09.105Z,28.03
2018-12-30T08:18:38.155Z,27.97
2018-12-30T08:21:07.205Z,28.77
2018-12-30T08:23:36.306Z,30.20
2018-12-30T08:26:05.342Z,35.30
2018-12-30T08:28:34.399Z,33.87
2018-12-30T08:31:03.478Z,30.17
2018-12-30T08:33:32.549Z,27.53
2018-12-30T08:36:01.602Z,32.57
2018-12-30T08:38:30.736Z,36.37
2018-12-30T08:40:59.788Z,52.43
2018-12-30T08:43:28.850Z,60.00
2018-12-30T08:45:57.936Z,57.03
2018-12-30T08:48:27.004Z,46.27
2018-12-30T08:50:56.293Z,53.53
2018-12-30T08:53:32.604Z,108.83
2018-12-30T08:56:01.672Z,136.17
2018-12-30T08:58:30.736Z,226.77
2018-12-30T09:00:59.846Z,206.40
2018-12-30T09:03:28.932Z,242.20
2018-12-30T09:05:58.003Z,255.83
2018-12-30T09:08:27.106Z,282.33
2018-12-30T09:10:56.168Z,116.03
2018-12-30T09:13:25.235Z,103.50
2018-12-30T09:15:54.339Z,76.40
2018-12-30T09:18:23.405Z,95.00
2018-12-30T09:20:52.480Z,182.30
2018-12-30T09:23:21.578Z,124.37
2018-12-30T09:25:50.637Z,165.40
2018-12-30T09:28:19.692Z,148.93
2018-12-30T09:30:48.789Z,91.03
2018-12-30T09:33:17.905Z,50.57
2018-12-30T09:35:46.918Z,95.13
2018-12-30T09:38:16.048Z,76.00
2018-12-30T09:40:45.107Z,116.97
2018-12-30T09:43:14.176Z,37.77
2018-12-30T09:45:43.263Z,38.93
2018-12-30T09:48:12.329Z,36.97
2018-12-30T09:50:41.389Z,34.00
2018-12-30T09:53:10.943Z,27.97
2018-12-30T09:55:40.004Z,23.13
2018-12-30T09:58:09.077Z,31.03
2018-12-30T10:00:38.185Z,30.20
2018-12-30T10:03:07.250Z,26.90
2018-12-30T10:05:36.318Z,21.63
2018-12-30T10:08:05.409Z,26.00
2018-12-30T10:10:34.466Z,23.73
2018-12-30T10:13:03.627Z,29.07
2018-12-30T10:15:32.618Z,40.13
2018-12-30T10:18:01.680Z,68.80
2018-12-30T10:20:30.748Z,34.70
2018-12-30T10:23:06.998Z,49.23
2018-12-30T10:25:36.060Z,31.07
2018-12-30T10:28:05.115Z,28.43
2018-12-30T10:30:34.210Z,27.60
2018-12-30T10:33:03.276Z,29.57
2018-12-30T10:35:32.756Z,32.50
2018-12-30T10:38:01.431Z,32.77
2018-12-30T10:40:30.498Z,29.40
2018-12-30T10:42:59.607Z,29.30
2018-12-30T10:45:28.771Z,33.57
2018-12-30T10:47:57.826Z,52.43
2018-12-30T10:50:26.879Z,52.07
2018-12-30T10:52:55.972Z,45.73
2018-12-30T10:55:25.043Z,45.33
2018-12-30T10:57:54.101Z,48.97
2018-12-30T11:00:23.190Z,60.43
2018-12-30T11:02:52.245Z,38.77
2018-12-30T11:05:21.307Z,36.73
2018-12-30T11:07:50.417Z,40.30
2018-12-30T11:10:19.527Z,54.60
2018-12-30T11:12:52.846Z,74.40
2018-12-30T11:15:21.919Z,259.27
2018-12-30T11:17:51.003Z,502.57
2018-12-30T11:20:20.108Z,478.97
2018-12-30T11:22:49.177Z,220.37
2018-12-30T11:25:18.259Z,146.80
2018-12-30T11:27:47.376Z,91.90
2018-12-30T11:30:16.445Z,81.73
2018-12-30T11:32:45.513Z,66.73
2018-12-30T11:35:14.608Z,68.00
2018-12-30T11:37:43.668Z,64.87
2018-12-30T11:40:12.724Z,61.03
2018-12-30T11:42:41.801Z,60.73
2018-12-30T11:45:10.863Z,60.07
2018-12-30T11:47:39.933Z,62.83
2018-12-30T11:50:09.264Z,59.30
2018-12-30T11:52:38.317Z,63.63
2018-12-30T11:55:07.383Z,91.80
2018-12-30T11:57:36.473Z,78.13
2018-12-30T12:00:05.533Z,62.60
2018-12-30T12:02:34.593Z,46.03
2018-12-30T12:05:03.685Z,50.60
2018-12-30T12:07:32.750Z,31.10
2018-12-30T12:10:01.814Z,34.73
2018-12-30T12:12:30.919Z,31.90
2018-12-30T12:14:59.983Z,28.03
2018-12-30T12:17:29.031Z,22.40
2018-12-30T12:19:58.133Z,14.57
2018-12-30T12:22:27.175Z,27.93
2018-12-30T12:24:56.226Z,19.87
2018-12-30T12:27:25.310Z,12.27
2018-12-30T12:29:54.361Z,16.07
2018-12-30T12:32:23.403Z,16.07
2018-12-30T12:34:52.505Z,20.30
2018-12-30T12:37:21.551Z,25.60
2018-12-30T12:39:50.619Z,45.10
2018-12-30T12:42:19.702Z,21.80
2018-12-30T12:44:48.753Z,9.63
2018-12-30T12:47:17.809Z,68.90
2018-12-30T12:49:46.895Z,47.47
2018-12-30T12:52:15.946Z,27.77
2018-12-30T12:54:45.001Z,35.67
2018-12-30T12:57:15.075Z,15.30
2018-12-30T12:59:44.128Z,9.37
2018-12-30T13:02:13.185Z,45.50
2018-12-30T13:04:42.277Z,27.00
2018-12-30T13:07:11.337Z,17.53
2018-12-30T13:09:40.389Z,23.00
2018-12-30T13:12:09.468Z,12.10
2018-12-30T13:14:38.529Z,14.43
2018-12-30T13:17:07.581Z,13.90
2018-12-30T13:19:36.673Z,15.87
2018-12-30T13:22:05.730Z,39.13
2018-12-30T13:24:39.916Z,6.43
2018-12-30T13:27:03.853Z,41.60
2018-12-30T13:29:32.908Z,14.33
2018-12-30T13:32:01.963Z,39.67
2018-12-30T13:34:31.058Z,19.90
2018-12-30T13:37:00.120Z,16.10
2018-12-30T13:39:29.192Z,15.47
2018-12-30T13:41:58.435Z,13.43
2018-12-30T13:44:27.486Z,13.33
2018-12-30T13:46:56.547Z,12.00
2018-12-30T13:49:25.638Z,13.87
2018-12-30T13:51:54.692Z,11.67
2018-12-30T13:54:23.739Z,32.97
2018-12-30T13:56:52.813Z,26.20
2018-12-30T13:59:22.739Z,27.20
2018-12-30T14:01:51.801Z,29.87
2018-12-30T14:04:20.903Z,29.37
2018-12-30T14:06:49.957Z,16.13
2018-12-30T14:09:19.005Z,10.97
2018-12-30T14:11:48.094Z,16.00
2018-12-30T14:14:17.151Z,7.30
2018-12-30T14:16:46.185Z,10.10
2018-12-30T14:19:15.260Z,21.80
2018-12-30T14:21:44.332Z,17.17
2018-12-30T14:24:13.373Z,38.50
2018-12-30T14:26:42.466Z,20.10
2018-12-30T14:29:11.509Z,13.47
2018-12-30T14:31:40.562Z,6.83
2018-12-30T14:34:09.613Z,7.70
2018-12-30T14:36:38.664Z,10.97
2018-12-30T14:39:07.710Z,9.33
2018-12-30T14:41:36.924Z,13.97
2018-12-30T14:44:05.990Z,23.47
2018-12-30T14:46:35.058Z,7.70
2018-12-30T14:49:04.114Z,14.50
2018-12-30T14:51:33.168Z,9.33
2018-12-30T14:54:18.724Z,11.50
2018-12-30T14:56:47.776Z,13.27
2018-12-30T14:59:16.822Z,13.50
2018-12-30T15:01:46.002Z,7.53
2018-12-30T15:04:15.039Z,19.53
2018-12-30T15:06:44.093Z,13.33
2018-12-30T15:09:13.179Z,68.77
2018-12-30T15:11:42.235Z,147.30
2018-12-30T15:14:25.525Z,70.20
2018-12-30T15:16:54.584Z,54.47
2018-12-30T15:19:23.632Z,57.47
2018-12-30T15:21:52.773Z,36.83
2018-12-30T15:24:21.838Z,71.93
2018-12-30T15:26:50.900Z,26.13
2018-12-30T15:29:19.981Z,31.67
2018-12-30T15:31:49.040Z,87.77
2018-12-30T15:34:18.095Z,63.73
2018-12-30T15:36:47.160Z,49.43
2018-12-30T15:39:16.226Z,33.77
2018-12-30T15:41:45.286Z,49.30
2018-12-30T15:44:14.415Z,15.83
2018-12-30T15:46:43.470Z,56.40
2018-12-30T15:49:12.523Z,21.43
2018-12-30T15:51:41.612Z,26.87
2018-12-30T15:54:10.663Z,16.10
2018-12-30T15:56:39.712Z,14.13
2018-12-30T15:59:08.785Z,8.10
2018-12-30T16:01:37.826Z,10.70
2018-12-30T16:04:06.867Z,6.17
2018-12-30T16:06:35.964Z,5.60
2018-12-30T16:09:05.003Z,7.33
2018-12-30T16:11:34.054Z,7.17
2018-12-30T16:14:03.122Z,8.23
2018-12-30T16:16:32.156Z,5.70
2018-12-30T16:19:01.196Z,2.97
2018-12-30T16:21:30.610Z,5.27
2018-12-30T16:23:59.667Z,6.57
2018-12-30T16:26:28.711Z,6.03
2018-12-30T16:28:57.953Z,6.10
2018-12-30T16:31:28.238Z,6.37
2018-12-30T16:33:56.045Z,9.47
2018-12-30T16:36:25.115Z,6.20
2018-12-30T16:38:54.158Z,6.07
2018-12-30T16:41:23.205Z,8.27
2018-12-30T16:43:52.275Z,8.83
2018-12-30T16:46:21.308Z,6.10
2018-12-30T16:48:50.345Z,8.23
2018-12-30T16:51:19.424Z,7.20
2018-12-30T16:53:48.458Z,8.27
2018-12-30T16:56:17.501Z,4.83
2018-12-30T16:58:46.667Z,10.00
2018-12-30T17:01:15.711Z,7.77
2018-12-30T17:03:44.745Z,7.97
2018-12-30T17:06:14.443Z,12.13
2018-12-30T17:08:42.879Z,5.77
2018-12-30T17:11:11.924Z,9.97
2018-12-30T17:13:41.310Z,7.43
2018-12-30T17:16:10.354Z,5.03
2018-12-30T17:18:39.408Z,10.53
2018-12-30T17:21:08.482Z,10.57
2018-12-30T17:23:52.411Z,11.00
2018-12-30T17:26:21.472Z,8.43
2018-12-30T17:28:50.523Z,15.60
2018-12-30T17:31:19.565Z,7.77
2018-12-30T17:33:48.637Z,11.23
2018-12-30T17:36:17.684Z,13.10
2018-12-30T17:38:46.733Z,15.20
2018-12-30T17:41:15.815Z,3.50
2018-12-30T17:43:45.147Z,14.30
2018-12-30T17:46:18.178Z,7.73
2018-12-30T17:48:43.257Z,12.43
2018-12-30T17:51:12.314Z,10.67
2018-12-30T17:53:41.354Z,7.57
2018-12-30T17:56:10.460Z,7.23
2018-12-30T17:58:39.504Z,8.90
2018-12-30T18:01:08.554Z,7.23
2018-12-30T18:03:37.619Z,9.23
2018-12-30T18:06:06.681Z,4.33
2018-12-30T18:08:35.726Z,7.67
2018-12-30T18:11:04.883Z,3.13
2018-12-30T18:13:47.323Z,5.43
2018-12-30T18:16:16.569Z,6.63
2018-12-30T18:18:45.613Z,11.83
2018-12-30T18:21:14.647Z,5.13
2018-12-30T18:23:43.705Z,5.30
2018-12-30T18:26:12.747Z,9.67
2018-12-30T18:28:41.793Z,8.40
2018-12-30T18:31:10.880Z,6.77
2018-12-30T18:33:39.923Z,10.70
2018-12-30T18:36:08.971Z,11.60
2018-12-30T18:38:38.060Z,17.80
2018-12-30T18:41:07.112Z,14.87
2018-12-30T18:43:36.164Z,16.00
2018-12-30T18:46:05.239Z,10.00
2018-12-30T18:48:34.301Z,10.43
2018-12-30T18:51:03.591Z,6.40
2018-12-30T18:53:32.672Z,12.07
2018-12-30T18:56:06.719Z,7.53
2018-12-30T18:58:30.763Z,9.07
2018-12-30T19:00:59.847Z,9.27
2018-12-30T19:03:28.900Z,12.93
2018-12-30T19:05:58.363Z,7.57
2018-12-30T19:08:27.422Z,6.77
2018-12-30T19:10:56.471Z,9.43
2018-12-30T19:13:25.521Z,11.90
2018-12-30T19:15:54.578Z,9.83
2018-12-30T19:18:23.632Z,8.07
2018-12-30T19:20:52.670Z,6.40
2018-12-30T19:23:43.459Z,7.33
2018-12-30T19:26:14.446Z,7.50
2018-12-30T19:28:41.552Z,9.97
2018-12-30T19:31:10.631Z,9.20
2018-12-30T19:33:39.684Z,14.17
2018-12-30T19:36:08.739Z,9.93
2018-12-30T19:38:37.819Z,10.70
2018-12-30T19:41:06.875Z,15.30
2018-12-30T19:43:35.937Z,25.50
2018-12-30T19:46:05.149Z,22.73
2018-12-30T19:48:34.201Z,10.37
2018-12-30T19:51:03.244Z,9.33
2018-12-30T19:53:32.414Z,5.97
2018-12-30T19:56:01.468Z,10.93
2018-12-30T19:58:30.524Z,9.90
2018-12-30T20:00:59.596Z,13.60
2018-12-30T20:03:39.477Z,16.43
2018-12-30T20:06:08.563Z,18.00
2018-12-30T20:08:37.612Z,10.97
2018-12-30T20:11:06.661Z,7.17
2018-12-30T20:13:35.731Z,7.70
2018-12-30T20:16:04.771Z,10.20
2018-12-30T20:18:33.827Z,11.23
2018-12-30T20:21:02.894Z,10.17
2018-12-30T20:23:31.952Z,10.03
2018-12-30T20:26:01.010Z,10.67
2018-12-30T20:28:30.146Z,15.07
2018-12-30T20:30:59.191Z,11.27
2018-12-30T20:33:28.260Z,20.43
2018-12-30T20:35:57.328Z,12.00
2018-12-30T20:38:26.377Z,12.20
2018-12-30T20:40:55.433Z,16.67
2018-12-30T20:43:24.519Z,14.03
2018-12-30T20:45:53.573Z,11.70
2018-12-30T20:48:22.620Z,14.50
2018-12-30T20:50:51.712Z,19.10
2018-12-30T20:53:20.778Z,18.63
2018-12-30T20:55:49.852Z,10.53
2018-12-30T20:58:18.927Z,10.03
2018-12-30T21:00:47.995Z,11.80
2018-12-30T21:03:17.034Z,9.90
2018-12-30T21:05:46.113Z,11.93
2018-12-30T21:08:15.206Z,7.63
2018-12-30T21:10:44.217Z,9.00
2018-12-30T21:13:13.346Z,8.30
2018-12-30T21:15:42.382Z,8.73
2018-12-30T21:18:11.416Z,11.23
2018-12-30T21:20:40.488Z,14.20
2018-12-30T21:23:09.530Z,8.37
2018-12-30T21:25:38.583Z,13.50
2018-12-30T21:28:07.655Z,6.90
2018-12-30T21:30:36.709Z,10.17
2018-12-30T21:33:24.212Z,10.67
2018-12-30T21:35:53.254Z,10.57
2018-12-30T21:38:22.307Z,7.20
2018-12-30T21:40:51.372Z,9.70
2018-12-30T21:43:20.426Z,9.43
2018-12-30T21:45:49.469Z,16.03
2018-12-30T21:48:18.576Z,9.10
2018-12-30T21:50:47.696Z,9.37
2018-12-30T21:53:16.745Z,7.70
2018-12-30T21:55:45.853Z,17.00
2018-12-30T21:58:14.922Z,41.40
2018-12-30T22:00:43.966Z,12.37
2018-12-30T22:03:27.136Z,4.97
2018-12-30T22:05:56.178Z,6.50
2018-12-30T22:08:25.251Z,9.70
2018-12-30T22:10:54.453Z,7.60
2018-12-30T22:13:36.814Z,11.00
2018-12-30T22:16:05.882Z,13.20
2018-12-30T22:18:34.921Z,6.50
2018-12-30T22:21:03.963Z,10.30
2018-12-30T22:23:33.025Z,7.90
2018-12-30T22:26:02.074Z,10.60
2018-12-30T22:28:31.128Z,10.80
2018-12-30T22:31:00.232Z,10.03
2018-12-30T22:33:29.270Z,9.43
2018-12-30T22:35:58.319Z,9.67
2018-12-30T22:38:27.619Z,7.67
2018-12-30T22:40:56.667Z,14.67
2018-12-30T22:43:25.718Z,17.00
2018-12-30T22:45:54.804Z,10.23
2018-12-30T22:48:23.871Z,10.60
2018-12-30T22:50:52.904Z,7.47
2018-12-30T22:53:21.997Z,11.90
2018-12-30T22:55:51.032Z,13.60
2018-12-30T22:58:20.091Z,14.03
2018-12-30T23:00:50.111Z,10.13
2018-12-30T23:03:19.151Z,8.47
2018-12-30T23:05:48.200Z,12.13
2018-12-30T23:08:17.258Z,8.60
2018-12-30T23:10:47.179Z,7.43
2018-12-30T23:13:16.198Z,9.97
2018-12-30T23:15:45.285Z,8.47
2018-12-30T23:18:14.326Z,13.10
2018-12-30T23:20:43.374Z,10.23
2018-12-30T23:23:12.450Z,13.57
2018-12-30T23:25:41.483Z,9.67
2018-12-30T23:28:10.529Z,12.67
2018-12-30T23:30:39.605Z,9.30
2018-12-30T23:33:08.651Z,10.70
2018-12-30T23:35:37.693Z,13.97
2018-12-30T23:38:06.932Z,10.10
2018-12-30T23:40:35.975Z,7.87
2018-12-30T23:43:05.024Z,13.23
2018-12-30T23:45:34.102Z,12.00
2018-12-30T23:48:03.144Z,8.97
2018-12-30T23:50:32.191Z,12.07
2018-12-30T23:53:01.357Z,9.27
2018-12-30T23:55:30.415Z,11.07
2018-12-30T23:57:59.457Z,8.97
